Time;durP1;ratioP1;P1;durP2;ratioP2;P2;SDS_P1;SDS_P2;PMS_P1;PMS_P2;Temp;Humidity;BMP_temperature;BMP_pressure;BME280_temperature;BME280_humidity;BME280_pressure;Samples;Min_cycle;Max_cycle;Signal;HPM_P1;HPM_P2
2022/04/23 00:00:07;;;;;;;12.55;10.55;;;10.40;89.80;;;;;;4917337;29;20094;-73
2022/04/23 00:02:33;;;;;;;13.45;10.15;;;10.40;89.90;;;;;;4926586;29;20595;-72
2022/04/23 00:04:58;;;;;;;15.60;10.32;;;10.40;89.90;;;;;;4915501;29;20127;-73
2022/04/23 00:07:24;;;;;;;14.50;11.27;;;10.30;89.90;;;;;;4922681;29;20131;-72
2022/04/23 00:09:49;;;;;;;13.02;10.38;;;10.30;89.90;;;;;;4934392;29;20016;-73
2022/04/23 00:12:14;;;;;;;13.35;10.63;;;10.30;90.00;;;;;;4929682;29;20110;-73
2022/04/23 00:14:40;;;;;;;14.20;10.90;;;10.30;90.00;;;;;;4919019;29;20038;-72
2022/04/23 00:17:05;;;;;;;16.67;12.32;;;10.30;90.10;;;;;;4932846;29;20024;-72
2022/04/23 00:19:31;;;;;;;14.30;10.60;;;10.20;90.10;;;;;;4915238;29;20120;-73
2022/04/23 00:21:56;;;;;;;14.48;10.30;;;10.20;90.10;;;;;;4932778;29;20119;-73
2022/04/23 00:24:22;;;;;;;14.35;11.63;;;10.20;90.10;;;;;;4917154;29;20028;-73
2022/04/23 00:26:47;;;;;;;12.95;10.98;;;10.20;90.20;;;;;;4916150;29;20032;-72
2022/04/23 00:29:13;;;;;;;14.48;11.15;;;10.20;90.20;;;;;;4933314;29;20036;-73
2022/04/23 00:31:38;;;;;;;13.02;10.65;;;10.10;90.20;;;;;;4933202;29;20023;-73
2022/04/23 00:34:04;;;;;;;13.38;11.05;;;10.10;90.20;;;;;;4929495;29;20126;-72
2022/04/23 00:36:29;;;;;;;16.92;12.32;;;10.10;90.20;;;;;;4934197;29;20020;-73
2022/04/23 00:38:56;;;;;;;14.88;10.75;;;10.10;90.20;;;;;;4932862;29;20062;-73
2022/04/23 00:44:07;;;;;;;;;;;10.00;90.20;;;;;;4934074;29;20067;-72
2022/04/23 00:46:32;;;;;;;15.75;11.50;;;10.00;90.20;;;;;;4932759;29;19910;-73
2022/04/23 00:48:58;;;;;;;13.15;11.70;;;10.00;90.20;;;;;;4936699;28;20066;-72
2022/04/23 00:51:28;;;;;;;15.00;11.70;;;9.90;90.20;;;;;;4936608;29;20032;-72
2022/04/23 00:53:54;;;;;;;14.70;11.10;;;9.90;90.30;;;;;;4916769;29;20039;-72
2022/04/23 00:56:22;;;;;;;15.65;12.57;;;9.90;90.20;;;;;;4927161;29;20028;-72
2022/04/23 00:58:47;;;;;;;15.82;11.98;;;9.90;90.30;;;;;;4918746;29;20048;-73
2022/04/23 01:01:14;;;;;;;15.85;12.25;;;9.80;90.30;;;;;;4925601;29;20047;-73
2022/04/23 01:03:42;;;;;;;15.93;12.10;;;9.90;90.40;;;;;;4936323;29;20036;-73
2022/04/23 01:06:10;;;;;;;15.90;12.35;;;9.80;90.30;;;;;;4937297;29;20036;-73
2022/04/23 01:08:37;;;;;;;14.60;11.98;;;9.80;90.40;;;;;;4935369;29;20065;-73
2022/04/23 01:11:03;;;;;;;15.18;11.77;;;9.70;90.40;;;;;;4937045;29;20048;-73
2022/04/23 01:13:28;;;;;;;18.83;12.68;;;9.70;90.40;;;;;;4935905;29;20382;-72
2022/04/23 01:16:02;;;;;;;16.63;12.32;;;9.70;90.30;;;;;;4937284;29;20036;-73
2022/04/23 01:18:27;;;;;;;16.70;12.40;;;9.70;90.40;;;;;;4930695;29;20048;-73
2022/04/23 01:20:57;;;;;;;15.20;12.43;;;9.70;90.40;;;;;;4924918;29;20034;-72
2022/04/23 01:23:26;;;;;;;16.27;12.07;;;9.60;90.40;;;;;;4935898;29;20051;-71
2022/04/23 01:25:53;;;;;;;18.25;13.02;;;9.60;90.40;;;;;;4936698;29;20399;-72
2022/04/23 01:28:23;;;;;;;18.30;13.88;;;9.60;90.50;;;;;;4931136;29;20043;-71
2022/04/23 01:30:52;;;;;;;16.02;13.02;;;9.60;90.50;;;;;;4936591;29;20110;-72
2022/04/23 01:33:18;;;;;;;17.25;13.65;;;9.60;90.60;;;;;;4933091;29;20036;-73
2022/04/23 01:35:44;;;;;;;15.70;13.20;;;9.50;90.60;;;;;;4936891;29;20387;-72
2022/04/23 01:38:11;;;;;;;19.13;14.10;;;9.60;90.60;;;;;;4923743;29;20079;-72
2022/04/23 01:40:36;;;;;;;17.83;13.40;;;9.50;90.60;;;;;;4917724;29;20051;-72
2022/04/23 01:43:02;;;;;;;17.40;13.68;;;9.50;90.70;;;;;;4929871;29;20115;-73
2022/04/23 01:45:28;;;;;;;16.25;13.20;;;9.40;90.60;;;;;;4919177;29;20448;-72
2022/04/23 01:47:53;;;;;;;16.52;13.57;;;9.40;90.70;;;;;;4922297;29;20038;-72
2022/04/23 01:50:19;;;;;;;17.25;12.90;;;9.40;90.70;;;;;;4917527;29;20084;-72
2022/04/23 01:52:44;;;;;;;14.95;12.45;;;9.40;90.70;;;;;;4931592;29;20031;-72
2022/04/23 01:55:10;;;;;;;17.92;13.88;;;9.40;90.70;;;;;;4918337;29;20035;-72
2022/04/23 01:57:36;;;;;;;19.02;13.95;;;9.30;90.70;;;;;;4935198;29;20030;-72
2022/04/23 02:00:03;;;;;;;15.48;13.00;;;9.30;90.80;;;;;;4930604;29;20047;-72
2022/04/23 02:02:29;;;;;;;17.58;13.55;;;9.30;90.80;;;;;;4935333;29;20050;-72
2022/04/23 02:04:54;;;;;;;17.00;13.70;;;9.20;90.80;;;;;;4935202;29;20406;-72
2022/04/23 02:07:20;;;;;;;17.27;13.15;;;9.20;90.70;;;;;;4936220;29;20023;-72
2022/04/23 02:09:45;;;;;;;17.40;13.27;;;9.20;90.70;;;;;;4923410;29;20064;-71
2022/04/23 02:12:11;;;;;;;16.02;13.25;;;9.20;90.70;;;;;;4924772;29;20415;-73
2022/04/23 02:14:36;;;;;;;17.83;13.10;;;9.20;90.70;;;;;;4935401;29;20046;-73
2022/04/23 02:17:03;;;;;;;17.20;13.63;;;9.20;90.70;;;;;;4935009;29;20491;-73
2022/04/23 02:19:28;;;;;;;17.65;12.93;;;9.20;90.70;;;;;;4934925;29;20404;-73
2022/04/23 02:21:54;;;;;;;14.80;11.95;;;9.20;90.70;;;;;;4935791;29;20039;-72
2022/04/23 02:24:19;;;;;;;14.90;11.55;;;9.20;90.60;;;;;;4935195;29;20031;-73
2022/04/23 02:26:45;;;;;;;16.25;12.23;;;9.10;90.60;;;;;;4935876;29;20023;-73
2022/04/23 02:29:11;;;;;;;15.57;12.00;;;9.20;90.50;;;;;;4934908;29;20119;-73
2022/04/23 02:31:36;;;;;;;15.23;11.45;;;9.20;90.50;;;;;;4934750;29;20102;-72
2022/04/23 02:34:02;;;;;;;14.48;12.55;;;9.20;90.40;;;;;;4927789;29;20388;-72
2022/04/23 02:36:27;;;;;;;14.93;11.70;;;9.20;90.40;;;;;;4932289;29;20031;-72
2022/04/23 02:38:53;;;;;;;15.90;11.82;;;9.20;90.40;;;;;;4934243;29;20167;-72
2022/04/23 02:41:18;;;;;;;15.95;11.55;;;9.20;90.30;;;;;;4936170;29;20028;-71
2022/04/23 02:43:45;;;;;;;14.13;11.50;;;9.10;90.30;;;;;;4935048;29;20035;-72
2022/04/23 02:46:14;;;;;;;14.73;10.50;;;9.20;90.20;;;;;;4918476;29;20039;-71
2022/04/23 02:48:40;;;;;;;16.05;11.75;;;9.20;90.20;;;;;;4917759;29;20050;-71
2022/04/23 02:51:05;;;;;;;14.82;11.23;;;9.20;90.20;;;;;;4935507;29;20131;-72
2022/04/23 02:53:31;;;;;;;16.35;11.80;;;9.20;90.20;;;;;;4932675;29;20503;-71
2022/04/23 02:55:56;;;;;;;14.27;11.88;;;9.10;90.20;;;;;;4934478;29;20027;-72
2022/04/23 02:58:24;;;;;;;17.98;11.95;;;9.10;90.20;;;;;;4934078;29;20050;-72
2022/04/23 03:00:49;;;;;;;14.30;11.52;;;9.10;90.20;;;;;;4935655;29;20110;-72
2022/04/23 03:03:15;;;;;;;14.25;10.93;;;9.10;90.10;;;;;;4934120;29;20444;-72
2022/04/23 03:05:42;;;;;;;14.80;11.73;;;9.10;90.10;;;;;;4935517;29;20027;-72
2022/04/23 03:08:09;;;;;;;16.80;11.77;;;9.10;90.10;;;;;;4934475;29;20122;-72
2022/04/23 03:10:35;;;;;;;14.27;10.93;;;9.00;90.10;;;;;;4934209;29;20032;-72
2022/04/23 03:13:00;;;;;;;13.68;10.70;;;9.10;90.10;;;;;;4934777;29;20038;-71
2022/04/23 03:15:26;;;;;;;15.32;11.75;;;9.10;90.10;;;;;;4933310;29;20118;-71
2022/04/23 03:18:04;;;;;;;13.23;11.50;;;9.10;90.10;;;;;;4935258;29;20032;-72
2022/04/23 03:20:30;;;;;;;15.45;11.93;;;9.10;90.10;;;;;;4933227;29;20074;-71
2022/04/23 03:22:55;;;;;;;17.05;12.15;;;9.10;90.10;;;;;;4915538;29;20188;-72
2022/04/23 03:25:22;;;;;;;15.13;11.82;;;9.00;90.00;;;;;;4931914;29;20491;-72
2022/04/23 03:27:47;;;;;;;16.17;11.32;;;9.00;90.00;;;;;;4934137;29;20384;-73
2022/04/23 03:30:13;;;;;;;17.33;13.52;;;9.00;90.10;;;;;;4925573;29;20028;-73
2022/04/23 03:32:38;;;;;;;16.17;12.55;;;9.00;90.10;;;;;;4934537;29;20102;-69
2022/04/23 03:35:07;;;;;;;15.50;11.77;;;9.00;90.10;;;;;;4933274;29;20111;-70
2022/04/23 03:37:33;;;;;;;16.27;12.65;;;9.00;90.10;;;;;;4928877;29;20038;-71
2022/04/23 03:39:59;;;;;;;16.38;12.93;;;9.00;90.20;;;;;;4933262;29;20099;-69
2022/04/23 03:42:24;;;;;;;17.98;13.02;;;9.00;90.20;;;;;;4934751;29;20036;-74
2022/04/23 03:44:50;;;;;;;18.65;14.10;;;8.90;90.30;;;;;;4933398;29;20504;-71
2022/04/23 03:47:16;;;;;;;17.67;12.80;;;8.90;90.30;;;;;;4933559;29;20051;-76
2022/04/23 03:49:41;;;;;;;18.33;13.88;;;8.90;90.40;;;;;;4933175;29;20028;-73
2022/04/23 03:52:10;;;;;;;17.20;13.77;;;8.90;90.40;;;;;;4934108;29;20036;-67
2022/04/23 03:54:36;;;;;;;15.15;12.38;;;8.90;90.50;;;;;;4919331;29;20108;-68
2022/04/23 03:57:02;;;;;;;16.10;13.50;;;8.90;90.60;;;;;;4932323;29;20494;-68
2022/04/23 03:59:29;;;;;;;20.40;13.63;;;8.80;90.50;;;;;;4924968;29;20514;-69
2022/04/23 04:01:55;;;;;;;17.10;13.00;;;8.80;90.50;;;;;;4921411;29;20071;-69
2022/04/23 04:04:21;;;;;;;17.02;13.10;;;8.80;90.50;;;;;;4933135;29;20122;-69
2022/04/23 04:06:46;;;;;;;16.45;12.85;;;8.80;90.60;;;;;;4934302;29;20111;-69
2022/04/23 04:09:12;;;;;;;16.80;12.52;;;8.70;90.60;;;;;;4932113;29;20381;-69
2022/04/23 04:14:22;;;;;;;17.63;13.20;;;8.70;90.70;;;;;;4933050;29;20032;-69
2022/04/23 04:16:49;;;;;;;18.35;13.80;;;8.60;90.70;;;;;;4934009;29;20038;-69
2022/04/23 04:19:14;;;;;;;17.25;13.80;;;8.60;90.80;;;;;;4915587;29;20067;-69
2022/04/23 04:21:44;;;;;;;18.50;13.70;;;8.60;90.90;;;;;;4915954;29;20067;-69
2022/04/23 04:24:12;;;;;;;18.80;14.10;;;8.50;91.00;;;;;;4929846;29;20134;-69
2022/04/23 04:26:40;;;;;;;19.45;13.32;;;8.50;91.10;;;;;;4923747;29;20396;-69
2022/04/23 04:29:06;;;;;;;18.80;13.77;;;8.40;91.10;;;;;;4939046;29;20420;-69
2022/04/23 04:31:49;;;;;;;18.55;12.63;;;8.50;91.20;;;;;;4940155;29;20114;-68
2022/04/23 04:34:28;;;;;;;16.38;12.55;;;8.40;91.10;;;;;;4936761;29;20035;-68
2022/04/23 04:37:05;;;;;;;17.75;14.18;;;8.40;91.20;;;;;;4940484;29;20110;-68
2022/04/23 04:39:31;;;;;;;18.17;13.32;;;8.40;91.20;;;;;;4939448;29;20055;-68
2022/04/23 04:41:57;;;;;;;20.58;13.02;;;8.40;91.20;;;;;;4939146;29;20036;-68
2022/04/23 04:44:22;;;;;;;17.27;11.90;;;8.50;91.20;;;;;;4938543;29;20487;-68
2022/04/23 04:46:48;;;;;;;17.83;13.27;;;8.50;91.20;;;;;;4940210;29;20038;-68
2022/04/23 04:49:13;;;;;;;17.98;12.27;;;8.60;91.20;;;;;;4939127;29;20364;-67
2022/04/23 04:51:39;;;;;;;16.67;12.43;;;8.50;91.30;;;;;;4939245;29;20038;-68
2022/04/23 04:54:05;;;;;;;16.52;12.50;;;8.50;91.10;;;;;;4938387;29;20055;-67
2022/04/23 04:56:31;;;;;;;17.52;13.32;;;8.60;91.10;;;;;;4936641;29;20605;-68
2022/04/23 04:58:57;;;;;;;17.77;13.43;;;8.60;91.10;;;;;;4937233;29;20039;-68
2022/04/23 05:01:22;;;;;;;16.75;12.88;;;8.60;91.10;;;;;;4922885;29;20032;-69
2022/04/23 05:03:48;;;;;;;16.05;12.18;;;8.70;91.10;;;;;;4939264;29;20027;-68
2022/04/23 05:06:13;;;;;;;16.33;13.13;;;8.80;91.10;;;;;;4940176;29;20034;-68
2022/04/23 05:08:39;;;;;;;15.23;11.57;;;8.80;91.00;;;;;;4938860;29;20503;-68
2022/04/23 05:11:06;;;;;;;16.83;12.60;;;8.80;91.00;;;;;;4939822;29;20087;-68
2022/04/23 05:13:32;;;;;;;18.08;13.38;;;8.90;91.00;;;;;;4933318;29;20092;-68
2022/04/23 05:15:58;;;;;;;17.40;12.23;;;8.90;90.90;;;;;;4939958;29;20115;-69
2022/04/23 05:18:24;;;;;;;16.95;12.48;;;9.00;90.90;;;;;;4939483;29;20108;-69
2022/04/23 05:20:49;;;;;;;15.10;11.63;;;9.10;90.80;;;;;;4939576;29;20036;-69
2022/04/23 05:23:15;;;;;;;17.45;11.60;;;9.10;90.80;;;;;;4937683;29;20048;-69
2022/04/23 05:25:41;;;;;;;17.23;11.60;;;9.10;90.70;;;;;;4939424;29;20042;-69
2022/04/23 05:28:06;;;;;;;17.33;11.60;;;9.20;90.60;;;;;;4939818;29;20101;-68
2022/04/23 05:30:32;;;;;;;16.00;11.95;;;9.20;90.60;;;;;;4938273;29;20031;-68
2022/04/23 05:32:57;;;;;;;16.90;11.50;;;9.30;90.60;;;;;;4939804;29;20107;-69
2022/04/23 05:35:23;;;;;;;16.00;12.02;;;9.30;90.60;;;;;;4932076;29;20051;-69
2022/04/23 05:37:48;;;;;;;14.23;11.48;;;9.40;90.50;;;;;;4933246;29;20058;-68
2022/04/23 05:40:14;;;;;;;17.20;12.10;;;9.50;90.50;;;;;;4934919;29;20044;-68
2022/04/23 05:42:39;;;;;;;15.80;11.35;;;9.50;90.40;;;;;;4936728;29;20028;-69
2022/04/23 05:45:05;;;;;;;15.40;11.35;;;9.60;90.30;;;;;;4935343;29;20537;-69
2022/04/23 05:47:31;;;;;;;16.25;12.15;;;9.60;90.20;;;;;;4935807;29;20024;-69
2022/04/23 05:49:56;;;;;;;16.02;10.88;;;9.70;90.00;;;;;;4918758;29;20038;-68
2022/04/23 05:52:22;;;;;;;16.75;11.32;;;9.80;90.00;;;;;;4936288;29;20027;-68
2022/04/23 05:54:48;;;;;;;14.93;10.77;;;9.80;90.00;;;;;;4935019;29;20027;-69
2022/04/23 05:57:14;;;;;;;15.50;11.63;;;9.80;89.80;;;;;;4936521;29;20554;-69
2022/04/23 05:59:39;;;;;;;14.95;11.30;;;9.90;89.90;;;;;;4935492;29;20110;-69
2022/04/23 06:02:04;;;;;;;16.70;11.63;;;10.00;89.80;;;;;;4932508;29;20060;-68
2022/04/23 06:04:30;;;;;;;16.55;11.10;;;10.00;89.60;;;;;;4924426;29;20028;-69
2022/04/23 06:06:56;;;;;;;14.10;11.23;;;10.10;89.60;;;;;;4932929;29;20043;-69
2022/04/23 06:09:21;;;;;;;15.00;10.75;;;10.10;89.40;;;;;;4935155;29;20447;-70
2022/04/23 06:11:47;;;;;;;12.82;10.13;;;10.20;89.20;;;;;;4936506;29;20023;-69
2022/04/23 06:14:13;;;;;;;15.30;10.57;;;10.30;89.00;;;;;;4934798;29;20063;-69
2022/04/23 06:16:38;;;;;;;14.50;11.00;;;10.40;88.90;;;;;;4926230;29;20047;-69
2022/04/23 06:19:05;;;;;;;16.52;11.65;;;10.40;88.20;;;;;;4934943;29;20082;-69
2022/04/23 06:21:30;;;;;;;12.60;10.27;;;10.50;88.10;;;;;;4915818;29;20035;-69
2022/04/23 06:23:56;;;;;;;17.10;10.75;;;10.50;87.70;;;;;;4932609;29;20048;-69
2022/04/23 06:26:21;;;;;;;13.77;10.27;;;10.50;87.30;;;;;;4929414;29;20062;-79
2022/04/23 06:28:47;;;;;;;13.02;9.65;;;10.60;87.50;;;;;;4928699;29;20352;-82
2022/04/23 06:31:13;;;;;;;14.70;10.10;;;10.70;87.70;;;;;;4932781;29;20038;-81
2022/04/23 06:33:39;;;;;;;13.50;9.85;;;10.70;87.50;;;;;;4927260;29;20027;-80
2022/04/23 06:36:04;;;;;;;12.93;10.00;;;10.80;87.40;;;;;;4916659;29;20044;-79
2022/04/23 06:38:30;;;;;;;12.85;9.93;;;10.90;87.30;;;;;;4924365;29;20039;-78
2022/04/23 06:40:55;;;;;;;12.88;9.48;;;10.90;86.80;;;;;;4934272;29;20159;-78
2022/04/23 06:43:21;;;;;;;13.75;9.70;;;11.00;86.90;;;;;;4934377;29;20035;-79
2022/04/23 06:45:46;;;;;;;13.43;10.00;;;11.10;86.90;;;;;;4935223;29;20027;-78
2022/04/23 06:48:12;;;;;;;12.65;9.45;;;11.10;86.50;;;;;;4933633;29;20019;-79
2022/04/23 06:50:37;;;;;;;14.10;9.50;;;11.20;86.20;;;;;;4929089;29;20111;-79
2022/04/23 06:53:04;;;;;;;13.10;9.25;;;11.30;86.00;;;;;;4916158;29;20028;-79
2022/04/23 06:55:30;;;;;;;13.20;9.65;;;11.40;85.80;;;;;;4933882;29;20032;-78
2022/04/23 06:57:56;;;;;;;14.35;9.55;;;11.50;85.60;;;;;;4914865;29;20087;-78
2022/04/23 07:00:22;;;;;;;13.38;9.50;;;11.50;85.30;;;;;;4932264;29;20110;-78
2022/04/23 07:02:51;;;;;;;11.93;9.52;;;11.60;85.10;;;;;;4917486;29;20115;-78
2022/04/23 07:05:20;;;;;;;12.73;8.57;;;11.60;84.60;;;;;;4933302;29;20115;-78
2022/04/23 07:08:02;;;;;;;11.88;8.77;;;11.70;84.50;;;;;;4931703;29;20115;-78
2022/04/23 07:10:30;;;;;;;13.02;9.43;;;11.70;83.90;;;;;;4933086;29;20036;-79
2022/04/23 07:12:56;;;;;;;12.27;9.85;;;11.80;83.90;;;;;;4934151;29;20038;-78
2022/04/23 07:15:23;;;;;;;11.07;8.13;;;11.90;83.80;;;;;;4926758;29;20050;-78
2022/04/23 07:17:50;;;;;;;11.85;9.07;;;11.90;83.10;;;;;;4898991;29;20024;-78
2022/04/23 07:20:18;;;;;;;12.05;7.75;;;12.00;83.40;;;;;;4930487;29;20122;-78
2022/04/23 07:24:02;;;;;;;10.32;7.53;;;12.10;83.00;;;;;;4934146;29;20051;-78
2022/04/23 07:25:35;;;;;;;10.88;7.20;;;12.20;82.60;;;;;;4929712;29;20024;-78
2022/04/23 07:28:02;;;;;;;8.82;6.90;;;12.30;82.20;;;;;;4922795;29;20065;-79
2022/04/23 07:30:28;;;;;;;8.88;7.40;;;12.30;82.00;;;;;;4930237;29;20034;-78
2022/04/23 07:32:54;;;;;;;10.90;7.00;;;12.40;81.70;;;;;;4934066;29;20035;-77
2022/04/23 07:38:17;;;;;;;9.50;7.43;;;12.50;81.10;;;;;;4930457;29;20116;-78
2022/04/23 07:40:43;;;;;;;11.57;7.15;;;12.60;81.00;;;;;;4933460;29;20044;-78
2022/04/23 07:43:12;;;;;;;9.10;6.85;;;12.70;80.70;;;;;;4911269;29;20032;-75
2022/04/23 07:45:38;;;;;;;9.63;7.55;;;12.70;79.80;;;;;;4922093;29;20042;-78
2022/04/23 07:48:05;;;;;;;10.27;7.75;;;12.80;79.70;;;;;;4933251;29;20054;-78
2022/04/23 07:50:32;;;;;;;9.25;7.07;;;12.80;79.50;;;;;;4929359;29;20038;-78
2022/04/23 07:52:58;;;;;;;8.98;7.53;;;12.90;79.70;;;;;;4933256;29;20047;-78
2022/04/23 07:55:23;;;;;;;8.57;6.90;;;13.00;79.40;;;;;;4915568;29;20025;-78
2022/04/23 07:57:49;;;;;;;9.63;7.50;;;13.00;79.30;;;;;;4931660;29;20032;-78
2022/04/23 08:00:15;;;;;;;10.30;7.55;;;13.10;78.60;;;;;;4932006;29;20051;-78
2022/04/23 08:02:40;;;;;;;9.07;7.47;;;13.10;78.40;;;;;;4933829;29;20566;-78
2022/04/23 08:05:09;;;;;;;8.88;7.00;;;13.20;78.60;;;;;;4914155;29;20072;-78
2022/04/23 08:07:34;;;;;;;9.55;7.00;;;13.20;78.50;;;;;;4898459;29;20515;-78
2022/04/23 08:10:02;;;;;;;10.18;8.18;;;13.30;77.70;;;;;;4909476;29;20060;-78
2022/04/23 08:12:28;;;;;;;9.23;7.47;;;13.30;77.70;;;;;;4917929;29;20038;-77
2022/04/23 08:14:54;;;;;;;9.20;7.53;;;13.30;77.40;;;;;;4921025;29;20036;-77
2022/04/23 08:17:39;;;;;;;10.45;6.75;;;13.40;77.80;;;;;;4926697;29;20113;-77
2022/04/23 08:20:14;;;;;;;9.48;7.20;;;13.40;77.90;;;;;;4921947;29;20052;-77
2022/04/23 08:22:40;;;;;;;8.50;6.47;;;13.60;77.80;;;;;;4898003;29;20106;-77
2022/04/23 08:25:06;;;;;;;10.27;7.50;;;13.70;77.20;;;;;;4916263;29;20075;-76
2022/04/23 08:27:54;;;;;;;8.15;6.53;;;13.70;76.50;;;;;;4911929;29;20055;-80
2022/04/23 08:30:36;;;;;;;11.63;6.93;;;13.80;76.00;;;;;;4915688;29;20024;-78
2022/04/23 08:33:05;;;;;;;9.45;7.43;;;13.90;75.50;;;;;;4922648;29;20674;-79
2022/04/23 08:35:36;;;;;;;9.95;7.57;;;13.90;75.30;;;;;;4916121;29;20079;-77
2022/04/23 08:38:05;;;;;;;8.63;6.50;;;13.90;75.10;;;;;;4930115;29;20118;-78
2022/04/23 08:40:41;;;;;;;7.68;6.05;;;14.00;75.20;;;;;;4915736;29;20043;-77
2022/04/23 08:43:07;;;;;;;9.98;6.35;;;14.00;74.60;;;;;;4919841;29;20119;-77
2022/04/23 08:45:37;;;;;;;7.60;6.38;;;14.10;74.30;;;;;;4916878;29;20036;-78
2022/04/23 08:48:08;;;;;;;8.55;6.22;;;14.20;73.70;;;;;;4916731;29;20032;-79
2022/04/23 08:50:36;;;;;;;8.18;6.20;;;14.30;73.70;;;;;;4931584;29;20031;-78
2022/04/23 08:53:05;;;;;;;9.55;6.07;;;14.30;73.70;;;;;;4930661;29;20510;-77
2022/04/23 08:55:31;;;;;;;8.45;6.35;;;14.50;73.90;;;;;;4918974;29;20024;-76
2022/04/23 08:57:57;;;;;;;7.38;6.18;;;14.50;73.10;;;;;;4931500;29;20035;-76
2022/04/23 09:00:23;;;;;;;7.60;5.85;;;14.70;72.50;;;;;;4932111;29;20032;-75
2022/04/23 09:02:48;;;;;;;6.90;5.72;;;14.70;72.70;;;;;;4932440;29;20087;-80
2022/04/23 09:05:14;;;;;;;9.23;5.93;;;14.80;72.50;;;;;;4912546;29;20583;-78
2022/04/23 09:07:40;;;;;;;9.85;6.55;;;14.90;72.00;;;;;;4933045;29;20111;-77
2022/04/23 09:10:06;;;;;;;8.32;6.18;;;15.00;71.60;;;;;;4936181;29;20031;-77
2022/04/23 09:12:32;;;;;;;6.97;5.25;;;15.10;70.60;;;;;;4936668;29;20074;-76
2022/04/23 09:23:43;;;;;;;6.70;5.70;;;15.50;69.90;;;;;;4937129;29;20515;-77
2022/04/23 09:26:20;;;;;;;7.95;5.95;;;15.60;69.40;;;;;;4919719;29;20032;-79
2022/04/23 09:28:48;;;;;;;6.28;5.63;;;15.60;68.50;;;;;;4937426;29;20039;-78
2022/04/23 09:31:15;;;;;;;7.20;5.43;;;15.70;68.00;;;;;;4936933;29;20037;-77
2022/04/23 09:33:51;;;;;;;6.68;5.63;;;15.80;68.10;;;;;;4936288;29;20044;-78
2022/04/23 09:36:17;;;;;;;7.47;5.43;;;15.90;67.40;;;;;;4937060;29;20028;-78
2022/04/23 09:38:42;;;;;;;7.85;5.95;;;16.00;66.40;;;;;;4931134;29;20515;-77
2022/04/23 09:41:19;;;;;;;7.82;5.72;;;16.00;65.90;;;;;;4918053;29;20020;-77
2022/04/23 09:43:45;;;;;;;6.38;5.35;;;16.00;64.70;;;;;;4916328;29;20028;-78
2022/04/23 09:46:11;;;;;;;6.53;4.97;;;16.00;64.60;;;;;;4904268;29;20086;-77
2022/04/23 09:48:38;;;;;;;7.88;5.47;;;16.10;64.40;;;;;;4928556;29;20550;-80
2022/04/23 09:51:05;;;;;;;6.93;5.07;;;16.20;64.40;;;;;;4917619;29;20380;-76
2022/04/23 09:53:31;;;;;;;8.88;5.95;;;16.20;64.80;;;;;;4916358;29;20036;-78
2022/04/23 09:56:05;;;;;;;6.38;5.47;;;16.30;65.00;;;;;;4934411;29;20704;-79
2022/04/23 09:58:33;;;;;;;6.23;5.23;;;16.40;64.40;;;;;;4935761;29;20028;-78
2022/04/23 10:01:00;;;;;;;6.47;5.72;;;16.40;63.90;;;;;;4932639;29;20443;-77
2022/04/23 10:03:30;;;;;;;6.40;5.43;;;16.40;62.80;;;;;;4936701;29;20043;-77
2022/04/23 10:05:56;;;;;;;5.93;4.90;;;16.40;63.70;;;;;;4918677;29;20042;-78
2022/04/23 10:08:26;;;;;;;7.35;5.43;;;16.50;62.90;;;;;;4936468;29;20024;-77
2022/04/23 10:10:59;;;;;;;5.45;4.70;;;16.50;63.00;;;;;;4917990;29;20031;-77
2022/04/23 10:13:29;;;;;;;5.75;4.75;;;16.60;62.60;;;;;;4936422;29;20434;-76
2022/04/23 10:15:57;;;;;;;7.88;5.05;;;16.70;62.10;;;;;;4934312;29;20376;-76
2022/04/23 10:18:23;;;;;;;6.30;5.13;;;16.70;61.50;;;;;;4935977;29;20031;-77
2022/04/23 10:20:58;;;;;;;6.28;5.00;;;16.70;61.60;;;;;;4931535;29;20035;-75
2022/04/23 10:23:43;;;;;;;6.28;4.75;;;16.70;61.40;;;;;;4935291;29;20155;-75
2022/04/23 10:26:40;;;;;;;6.80;5.40;;;16.70;61.30;;;;;;4917590;29;20384;-76
2022/04/23 10:29:14;;;;;;;6.68;5.93;;;16.80;61.20;;;;;;4926193;29;20483;-76
2022/04/23 10:31:43;;;;;;;6.40;5.20;;;16.80;60.70;;;;;;4918923;29;20119;-76
2022/04/23 10:34:31;;;;;;;8.93;5.45;;;16.80;60.80;;;;;;4934362;29;20027;-72
2022/04/23 10:37:14;;;;;;;6.63;5.40;;;16.90;59.70;;;;;;4914208;29;20387;-74
2022/04/23 10:39:40;;;;;;;5.70;4.28;;;16.90;60.20;;;;;;4934743;29;20495;-74
2022/04/23 10:42:13;;;;;;;6.45;5.07;;;17.00;60.30;;;;;;4933691;29;20047;-73
2022/04/23 10:44:39;;;;;;;5.13;4.47;;;17.10;60.30;;;;;;4933516;29;20039;-74
2022/04/23 10:47:30;;;;;;;6.38;4.97;;;17.20;60.10;;;;;;4935125;29;20024;-73
2022/04/23 10:50:25;;;;;;;7.20;5.47;;;17.30;59.20;;;;;;4935747;29;20428;-75
2022/04/23 10:52:55;;;;;;;5.28;4.68;;;17.30;59.20;;;;;;4929252;29;20575;-75
2022/04/23 10:55:21;;;;;;;6.25;5.30;;;17.40;58.90;;;;;;4916683;29;20036;-75
2022/04/23 10:57:51;;;;;;;6.50;5.45;;;17.30;59.10;;;;;;4920582;29;20487;-74
2022/04/23 11:00:19;;;;;;;6.13;5.28;;;17.40;59.30;;;;;;4935158;29;20090;-75
2022/04/23 11:02:54;;;;;;;7.28;5.68;;;17.40;58.60;;;;;;4934611;29;20138;-74
2022/04/23 11:13:48;;;;;;;5.57;4.75;;;17.10;58.20;;;;;;4934920;29;20024;-74
2022/04/23 11:16:18;;;;;;;5.40;4.43;;;17.10;58.00;;;;;;4905122;29;20535;-75
2022/04/23 11:18:46;;;;;;;6.53;4.32;;;17.30;58.70;;;;;;4935152;29;20027;-74
2022/04/23 11:21:24;;;;;;;4.38;3.55;;;17.40;58.10;;;;;;4932931;29;20040;-75
2022/04/23 11:23:51;;;;;;;5.07;4.22;;;17.60;57.00;;;;;;4933343;29;20055;-75
2022/04/23 11:26:28;;;;;;;5.97;4.55;;;17.60;56.30;;;;;;4928534;29;20035;-75
2022/04/23 11:28:58;;;;;;;4.45;3.60;;;17.70;56.30;;;;;;4935157;29;20027;-75
2022/04/23 11:31:24;;;;;;;5.57;4.05;;;17.90;56.10;;;;;;4932565;29;20032;-75
2022/04/23 11:33:57;;;;;;;4.75;4.20;;;18.00;55.70;;;;;;4932863;29;20153;-74
2022/04/23 11:36:31;;;;;;;6.65;4.22;;;18.00;55.00;;;;;;4917314;29;20032;-75
2022/04/23 11:39:09;;;;;;;7.23;5.10;;;18.00;54.70;;;;;;4933707;29;20038;-73
2022/04/23 11:41:44;;;;;;;7.38;4.93;;;18.00;55.10;;;;;;4934226;29;20308;-75
2022/04/23 11:44:13;;;;;;;;;;;18.10;55.10;;;;;;4934729;29;20137;-74
2022/04/23 11:46:43;;;;;;;4.60;4.05;;;18.30;55.30;;;;;;4933509;29;19966;-75
2022/04/23 11:49:08;;;;;;;8.93;4.70;;;18.20;54.90;;;;;;4922894;29;20035;-75
2022/04/23 11:51:34;;;;;;;5.95;4.82;;;18.20;55.20;;;;;;4933880;29;20086;-75
2022/04/23 11:54:00;;;;;;;6.13;4.90;;;18.30;55.50;;;;;;4934657;29;20031;-75
2022/04/23 11:56:32;;;;;;;6.78;4.60;;;18.30;55.20;;;;;;4917655;29;20026;-75
2022/04/23 11:59:06;;;;;;;6.13;5.05;;;18.30;54.90;;;;;;4925493;29;20043;-75
2022/04/23 12:01:32;;;;;;;;;;;18.30;54.40;;;;;;4917579;29;20032;-75
2022/04/23 12:03:58;;;;;;;5.57;4.43;;;18.20;54.60;;;;;;4933701;29;19933;-75
2022/04/23 12:06:25;;;;;;;5.40;4.45;;;18.00;53.40;;;;;;4917441;29;20051;-75
2022/04/23 12:08:51;;;;;;;5.55;4.47;;;18.00;53.90;;;;;;4929106;29;20566;-75
2022/04/23 12:11:28;;;;;;;8.88;6.00;;;18.10;54.20;;;;;;4917203;29;20059;-74
2022/04/23 12:13:54;;;;;;;7.38;5.45;;;18.10;53.70;;;;;;4933602;29;20028;-74
2022/04/23 12:16:38;;;;;;;4.40;4.00;;;18.10;53.50;;;;;;4934625;29;20028;-74
2022/04/23 12:19:06;;;;;;;6.55;4.60;;;18.10;53.60;;;;;;4916999;29;20115;-75
2022/04/23 12:21:32;;;;;;;4.53;3.50;;;18.20;54.20;;;;;;4917536;29;20032;-74
2022/04/23 12:23:57;;;;;;;5.00;3.88;;;18.30;53.40;;;;;;4916934;29;20153;-75
2022/04/23 12:26:24;;;;;;;5.25;4.53;;;18.40;52.70;;;;;;4930001;29;20470;-75
2022/04/23 12:42:30;;;;;;;4.50;4.10;;;18.60;50.90;;;;;;4917046;29;20076;-74
2022/04/23 12:44:56;;;;;;;5.35;4.18;;;18.60;51.10;;;;;;4937011;29;20031;-75
2022/04/23 12:47:29;;;;;;;5.90;4.43;;;18.40;51.60;;;;;;4920854;29;20111;-74
2022/04/23 12:49:56;;;;;;;5.72;4.60;;;18.30;51.50;;;;;;4935773;29;20039;-75
2022/04/23 12:52:31;;;;;;;5.60;4.55;;;18.30;51.50;;;;;;4929427;29;20070;-75
2022/04/23 12:55:12;;;;;;;4.47;4.05;;;18.30;51.40;;;;;;4937100;29;20032;-74
2022/04/23 12:57:46;;;;;;;4.88;3.80;;;18.40;51.50;;;;;;4937517;29;20051;-75
2022/04/23 13:00:25;;;;;;;5.40;4.30;;;18.40;51.40;;;;;;4936483;29;20035;-75
2022/04/23 13:02:55;;;;;;;5.03;4.22;;;18.50;51.40;;;;;;4938169;29;20383;-74
2022/04/23 13:05:21;;;;;;;4.82;4.03;;;18.50;51.00;;;;;;4936992;29;20024;-75
2022/04/23 13:10:32;;;;;;;4.72;3.80;;;18.50;51.00;;;;;;4933035;29;20027;-74
2022/04/23 13:12:58;;;;;;;6.03;4.35;;;18.60;51.20;;;;;;4922268;29;20034;-76
2022/04/23 13:15:23;;;;;;;5.80;4.43;;;18.70;51.10;;;;;;4934812;29;20087;-73
2022/04/23 13:17:49;;;;;;;5.18;3.67;;;18.70;51.10;;;;;;4937784;29;20028;-73
2022/04/23 13:20:16;;;;;;;5.82;4.47;;;18.90;51.00;;;;;;4934447;29;20655;-72
2022/04/23 13:22:43;;;;;;;4.65;3.90;;;19.00;50.80;;;;;;4935928;29;20035;-75
2022/04/23 13:25:10;;;;;;;5.75;4.00;;;19.10;50.60;;;;;;4929761;29;20032;-73